Time;durP1;ratioP1;P1;durP2;ratioP2;P2;SDS_P1;SDS_P2;PMS_P1;PMS_P2;Temp;Humidity;BMP_temperature;BMP_pressure;BME280_temperature;BME280_humidity;BME280_pressure;Samples;Min_cycle;Max_cycle;Signal;HPM_P1;HPM_P2
2022/08/20 00:00:45;;;;;;;60.28;34.25;;;17.60;99.90;;;;;;5025601;28;20104;-58
2022/08/20 00:03:20;;;;;;;59.00;33.85;;;17.50;99.90;;;;;;5025665;28;20037;-59
2022/08/20 00:05:53;;;;;;;65.00;34.13;;;17.60;99.90;;;;;;5028307;28;20093;-58
2022/08/20 00:08:20;;;;;;;60.55;35.00;;;17.50;99.90;;;;;;5025515;28;20060;-59
2022/08/20 00:10:47;;;;;;;54.75;31.30;;;17.50;99.90;;;;;;5028146;28;20104;-58
2022/08/20 00:13:19;;;;;;;54.75;32.47;;;17.50;99.90;;;;;;5027322;28;20722;-58
2022/08/20 00:15:46;;;;;;;56.50;31.95;;;17.50;99.90;;;;;;5027900;28;20029;-58
2022/08/20 00:18:12;;;;;;;55.42;31.83;;;17.40;99.90;;;;;;5013443;28;20025;-58
2022/08/20 00:20:42;;;;;;;55.67;30.90;;;17.40;99.90;;;;;;5027128;28;20029;-58
2022/08/20 00:23:08;;;;;;;56.13;32.20;;;17.50;99.90;;;;;;5026779;28;20029;-60
2022/08/20 00:25:35;;;;;;;50.88;31.00;;;17.50;99.90;;;;;;5026031;28;20438;-58
2022/08/20 00:28:02;;;;;;;54.47;30.98;;;17.40;99.90;;;;;;5026740;28;20666;-58
2022/08/20 00:30:29;;;;;;;50.00;30.42;;;17.40;99.90;;;;;;5025507;28;20044;-58
2022/08/20 00:33:02;;;;;;;52.58;29.92;;;17.40;99.90;;;;;;5024938;28;20033;-57
2022/08/20 00:35:31;;;;;;;51.42;31.00;;;17.30;99.90;;;;;;5027594;28;20105;-58
2022/08/20 00:37:57;;;;;;;54.65;30.25;;;17.30;99.90;;;;;;5027197;28;20029;-58
2022/08/20 00:40:37;;;;;;;55.42;30.38;;;17.30;99.90;;;;;;5025309;28;20029;-57
2022/08/20 00:43:05;;;;;;;52.78;29.55;;;17.30;99.90;;;;;;5028264;28;20127;-58
2022/08/20 00:45:33;;;;;;;49.58;29.35;;;17.20;99.90;;;;;;5024779;28;20057;-58
2022/08/20 00:47:59;;;;;;;53.28;31.80;;;17.30;99.90;;;;;;5026552;28;20503;-58
2022/08/20 00:50:33;;;;;;;59.30;31.35;;;17.30;99.90;;;;;;5021825;28;21265;-57
2022/08/20 00:53:01;;;;;;;54.25;30.00;;;17.30;99.90;;;;;;5029489;28;20026;-57
2022/08/20 00:55:28;;;;;;;53.60;29.77;;;17.20;99.90;;;;;;5027048;28;20026;-58
2022/08/20 00:57:59;;;;;;;53.40;29.65;;;17.30;99.90;;;;;;5029603;28;20033;-58
2022/08/20 01:00:29;;;;;;;46.35;27.42;;;17.30;99.90;;;;;;5031685;28;20036;-58
2022/08/20 01:02:55;;;;;;;51.95;29.70;;;17.20;99.90;;;;;;5030431;28;20033;-57
2022/08/20 01:05:22;;;;;;;50.10;27.60;;;17.20;99.90;;;;;;5035657;28;20053;-58
2022/08/20 01:07:50;;;;;;;46.25;27.73;;;17.20;99.90;;;;;;5032797;28;20033;-57
2022/08/20 01:10:26;;;;;;;48.75;27.73;;;17.20;99.90;;;;;;5033000;28;20033;-58
2022/08/20 01:12:56;;;;;;;54.17;28.20;;;17.30;99.90;;;;;;5037813;28;20057;-58
2022/08/20 01:15:25;;;;;;;53.63;28.85;;;17.20;99.90;;;;;;5039147;28;20026;-58
2022/08/20 01:17:56;;;;;;;51.47;27.33;;;17.20;99.90;;;;;;5043054;28;20072;-58
2022/08/20 01:20:26;;;;;;;49.10;25.50;;;17.10;99.90;;;;;;5029813;28;20022;-57
2022/08/20 01:25:52;;;;;;;41.22;24.75;;;17.10;99.90;;;;;;5022897;28;20491;-58
2022/08/20 01:28:40;;;;;;;46.17;25.52;;;17.10;99.90;;;;;;5029129;28;20037;-57
2022/08/20 01:31:12;;;;;;;43.58;24.88;;;17.10;99.90;;;;;;5028489;28;20049;-57
2022/08/20 01:33:38;;;;;;;41.00;24.67;;;17.00;99.90;;;;;;5031722;28;20079;-57
2022/08/20 01:36:05;;;;;;;42.22;24.83;;;17.00;99.90;;;;;;5028899;28;20036;-58
2022/08/20 01:38:31;;;;;;;43.45;24.33;;;17.00;99.90;;;;;;5038110;28;20056;-58
2022/08/20 01:41:22;;;;;;;40.22;24.27;;;17.00;99.90;;;;;;5030281;28;20391;-57
2022/08/20 01:43:49;;;;;;;36.75;22.77;;;17.00;99.90;;;;;;5032132;28;20086;-57
2022/08/20 01:46:16;;;;;;;42.03;23.27;;;17.00;99.90;;;;;;5033619;28;20057;-60
2022/08/20 01:48:43;;;;;;;44.28;23.52;;;16.90;99.90;;;;;;5028144;28;20140;-58
2022/08/20 01:51:16;;;;;;;37.00;23.17;;;16.90;99.90;;;;;;5029436;28;20079;-57
2022/08/20 01:53:51;;;;;;;37.13;22.15;;;16.90;99.90;;;;;;5030233;28;20033;-59
2022/08/20 01:56:20;;;;;;;41.63;22.27;;;16.90;99.90;;;;;;5029791;28;20530;-60
2022/08/20 01:58:49;;;;;;;40.25;23.00;;;16.90;99.90;;;;;;5023028;28;20045;-58
2022/08/20 02:01:32;;;;;;;38.50;21.70;;;16.90;99.90;;;;;;5027989;28;20839;-60
2022/08/20 02:03:59;;;;;;;36.03;20.58;;;16.80;99.90;;;;;;5016264;28;20038;-58
2022/08/20 02:06:26;;;;;;;38.13;21.08;;;16.80;99.90;;;;;;5030408;28;20077;-58
2022/08/20 02:08:57;;;;;;;34.47;20.23;;;16.80;99.90;;;;;;5027090;28;20029;-58
2022/08/20 02:11:23;;;;;;;33.35;19.63;;;16.80;99.90;;;;;;5025472;28;20034;-58
2022/08/20 02:13:51;;;;;;;30.52;18.95;;;16.80;99.90;;;;;;5035966;28;20044;-57
2022/08/20 02:16:30;;;;;;;30.70;18.17;;;16.80;99.90;;;;;;5029807;28;20120;-58
2022/08/20 02:19:12;;;;;;;28.50;16.63;;;16.70;99.90;;;;;;5028348;28;20026;-58
2022/08/20 02:21:48;;;;;;;31.17;16.90;;;16.70;99.90;;;;;;5029176;28;20033;-58
2022/08/20 02:24:14;;;;;;;27.50;16.50;;;16.70;99.90;;;;;;5027528;28;20557;-59
2022/08/20 02:26:40;;;;;;;29.67;16.30;;;16.60;99.90;;;;;;5029452;28;20021;-57
2022/08/20 02:29:08;;;;;;;32.42;16.73;;;16.60;99.90;;;;;;5028896;28;20113;-57
2022/08/20 02:31:35;;;;;;;28.67;16.80;;;16.70;99.90;;;;;;5028575;28;20022;-57
2022/08/20 02:34:04;;;;;;;28.73;16.25;;;16.60;99.90;;;;;;5028584;28;20044;-58
2022/08/20 02:36:30;;;;;;;30.73;16.58;;;16.70;99.90;;;;;;5049691;28;20021;-57
2022/08/20 02:38:59;;;;;;;30.52;16.42;;;16.60;99.90;;;;;;5033709;28;20029;-57
2022/08/20 02:41:25;;;;;;;29.52;17.30;;;16.70;99.90;;;;;;5027561;28;20040;-57
2022/08/20 02:43:51;;;;;;;27.90;16.27;;;16.70;99.90;;;;;;5028250;28;20046;-59
2022/08/20 02:46:18;;;;;;;28.77;15.70;;;16.70;99.90;;;;;;5027436;28;20407;-62
2022/08/20 02:48:44;;;;;;;30.63;16.90;;;16.60;99.90;;;;;;5028788;28;20148;-59
2022/08/20 02:51:10;;;;;;;32.10;17.23;;;16.60;99.90;;;;;;5030068;28;20053;-58
2022/08/20 02:53:37;;;;;;;34.22;17.15;;;16.60;99.90;;;;;;5028265;28;20296;-59
2022/08/20 02:56:10;;;;;;;32.75;17.85;;;16.60;99.90;;;;;;5027307;28;20025;-59
2022/08/20 02:58:37;;;;;;;27.40;16.00;;;16.60;99.90;;;;;;5028702;28;20033;-59
2022/08/20 03:01:05;;;;;;;31.00;16.13;;;16.60;99.90;;;;;;5025114;28;20026;-59
2022/08/20 03:03:30;;;;;;;27.33;14.55;;;16.60;99.90;;;;;;5025381;28;20041;-60
2022/08/20 03:05:58;;;;;;;27.80;15.52;;;16.70;99.90;;;;;;5027434;28;20040;-59
2022/08/20 03:08:26;;;;;;;26.90;14.13;;;16.70;99.90;;;;;;5028348;28;20395;-59
2022/08/20 03:10:52;;;;;;;30.20;14.30;;;16.70;99.90;;;;;;5027340;28;20033;-59
2022/08/20 03:13:20;;;;;;;22.75;13.57;;;16.70;99.90;;;;;;5029522;28;20041;-61
2022/08/20 03:15:49;;;;;;;24.35;13.75;;;16.70;99.90;;;;;;5026821;28;20040;-60
2022/08/20 03:18:17;;;;;;;21.35;13.85;;;16.70;99.90;;;;;;5015387;28;20040;-58
2022/08/20 03:20:43;;;;;;;24.90;14.05;;;16.70;99.90;;;;;;5029448;28;20108;-59
2022/08/20 03:23:09;;;;;;;27.10;13.18;;;16.60;99.90;;;;;;5025858;28;20113;-59
2022/08/20 03:25:35;;;;;;;23.52;13.98;;;16.70;99.90;;;;;;5025691;28;20646;-59
2022/08/20 03:28:01;;;;;;;28.98;14.88;;;16.70;99.90;;;;;;5039300;28;20045;-59
2022/08/20 03:30:27;;;;;;;26.58;15.00;;;16.70;99.90;;;;;;5034947;28;20086;-59
2022/08/20 03:32:54;;;;;;;26.08;14.43;;;16.70;99.90;;;;;;5028467;28;20048;-59
2022/08/20 03:35:22;;;;;;;26.00;15.50;;;16.70;99.90;;;;;;5033696;28;20033;-61
2022/08/20 03:37:48;;;;;;;26.05;15.18;;;16.80;99.90;;;;;;5038329;28;20033;-59
2022/08/20 03:40:25;;;;;;;27.38;15.43;;;16.70;99.90;;;;;;5025412;28;20025;-60
2022/08/20 03:42:51;;;;;;;22.65;13.23;;;16.80;99.90;;;;;;5026670;28;20041;-60
2022/08/20 03:45:18;;;;;;;22.23;13.02;;;16.80;99.90;;;;;;5031456;28;20082;-61
2022/08/20 03:47:44;;;;;;;21.95;14.23;;;16.80;99.90;;;;;;5033857;28;20068;-59
2022/08/20 03:50:11;;;;;;;22.13;12.45;;;16.80;99.90;;;;;;5029106;28;20041;-59
2022/08/20 03:52:37;;;;;;;25.20;12.75;;;16.80;99.90;;;;;;5028097;28;20220;-59
2022/08/20 03:55:06;;;;;;;22.92;12.65;;;16.80;99.90;;;;;;5033941;28;20749;-60
2022/08/20 03:57:31;;;;;;;20.17;12.50;;;16.80;99.90;;;;;;5024611;28;20065;-59
2022/08/20 03:59:57;;;;;;;22.75;12.90;;;16.80;99.90;;;;;;5027630;28;20115;-59
2022/08/20 04:02:24;;;;;;;20.58;12.80;;;16.80;99.90;;;;;;5025548;28;20565;-60
2022/08/20 04:04:50;;;;;;;23.50;12.80;;;16.80;99.90;;;;;;5027234;28;20041;-58
2022/08/20 04:07:24;;;;;;;28.17;11.93;;;16.80;99.90;;;;;;5027322;28;20045;-59
2022/08/20 04:09:54;;;;;;;22.35;13.02;;;16.80;99.90;;;;;;5026681;28;20037;-59
2022/08/20 04:12:21;;;;;;;21.27;11.80;;;16.80;99.90;;;;;;5027970;28;20033;-61
2022/08/20 04:14:47;;;;;;;20.67;11.00;;;16.80;99.90;;;;;;5032242;28;20403;-59
2022/08/20 04:17:13;;;;;;;20.80;11.27;;;16.80;99.90;;;;;;5027902;28;20478;-59
2022/08/20 04:19:39;;;;;;;17.48;11.05;;;16.80;99.90;;;;;;5024177;28;20021;-60
2022/08/20 04:22:06;;;;;;;18.75;10.70;;;16.90;99.90;;;;;;5026640;28;20381;-60
2022/08/20 04:24:32;;;;;;;19.42;10.45;;;16.80;99.90;;;;;;5026419;28;20159;-59
2022/08/20 04:27:03;;;;;;;21.02;11.20;;;16.80;99.90;;;;;;5026686;28;20041;-60
2022/08/20 04:29:30;;;;;;;17.27;10.30;;;16.80;99.90;;;;;;5038707;28;20040;-59
2022/08/20 04:31:56;;;;;;;16.70;9.52;;;16.90;99.90;;;;;;5025152;28;20087;-59
2022/08/20 04:34:22;;;;;;;16.23;9.90;;;16.80;99.90;;;;;;5030458;28;20021;-61
2022/08/20 04:36:47;;;;;;;16.63;10.27;;;16.80;99.90;;;;;;5028407;28;20077;-59
2022/08/20 04:39:14;;;;;;;20.38;9.45;;;16.80;99.90;;;;;;5027757;28;20065;-60
2022/08/20 04:41:40;;;;;;;15.38;8.82;;;16.80;99.90;;;;;;5030378;28;20029;-59
2022/08/20 04:44:06;;;;;;;12.57;8.05;;;16.80;99.90;;;;;;5028618;28;20100;-61
2022/08/20 04:46:32;;;;;;;15.30;8.60;;;16.80;99.90;;;;;;5029088;28;20116;-59
2022/08/20 04:49:00;;;;;;;13.75;8.43;;;16.80;99.90;;;;;;5030467;28;20203;-58
2022/08/20 04:51:25;;;;;;;13.93;8.70;;;16.80;99.90;;;;;;5032658;28;20071;-60
2022/08/20 04:53:53;;;;;;;17.45;8.55;;;16.80;99.90;;;;;;5031230;28;20088;-60
2022/08/20 04:56:24;;;;;;;12.55;8.30;;;16.80;99.90;;;;;;5032263;28;20032;-59
2022/08/20 04:58:51;;;;;;;16.23;8.00;;;16.80;99.90;;;;;;5039961;28;20025;-59
2022/08/20 05:01:17;;;;;;;14.00;8.50;;;16.80;99.90;;;;;;5039353;28;20392;-59
2022/08/20 05:03:46;;;;;;;12.80;8.32;;;16.70;99.90;;;;;;5029076;28;20040;-59
2022/08/20 05:06:12;;;;;;;14.30;9.00;;;16.80;99.90;;;;;;5028743;28;20029;-60
2022/08/20 05:08:39;;;;;;;15.27;9.02;;;16.80;99.90;;;;;;5030594;28;20044;-59
2022/08/20 05:11:05;;;;;;;16.45;9.65;;;16.80;99.90;;;;;;5032087;28;20033;-59
2022/08/20 05:13:31;;;;;;;16.50;9.38;;;16.70;99.90;;;;;;5028657;28;20580;-59
2022/08/20 05:16:00;;;;;;;18.83;9.65;;;16.70;99.90;;;;;;5030021;28;20031;-60
2022/08/20 05:18:26;;;;;;;18.75;9.07;;;16.80;99.90;;;;;;5031196;28;20033;-61
2022/08/20 05:20:53;;;;;;;15.93;9.50;;;16.80;99.90;;;;;;5031851;28;20471;-60
2022/08/20 05:23:20;;;;;;;14.32;9.20;;;16.80;99.90;;;;;;5030055;28;20053;-60
2022/08/20 05:25:50;;;;;;;14.65;9.05;;;16.80;99.90;;;;;;5030077;28;20028;-59
2022/08/20 05:28:19;;;;;;;13.10;8.55;;;16.80;99.90;;;;;;5023273;28;20059;-59
2022/08/20 05:30:46;;;;;;;14.20;8.98;;;16.80;99.90;;;;;;5022095;28;20108;-60
2022/08/20 05:33:15;;;;;;;16.65;8.80;;;16.80;99.90;;;;;;5031473;28;20032;-60
2022/08/20 05:35:41;;;;;;;17.67;8.48;;;16.90;99.90;;;;;;5030771;28;20091;-59
2022/08/20 05:38:10;;;;;;;16.42;8.48;;;16.90;99.90;;;;;;5028387;28;20029;-60
2022/08/20 05:40:37;;;;;;;20.50;9.20;;;16.90;99.90;;;;;;5022465;28;20034;-60
2022/08/20 05:43:03;;;;;;;19.70;9.15;;;16.90;99.90;;;;;;5029884;28;20029;-59
2022/08/20 05:45:30;;;;;;;15.18;9.00;;;17.00;99.90;;;;;;5029514;28;20487;-60
2022/08/20 05:47:57;;;;;;;14.82;9.20;;;17.00;99.90;;;;;;5028322;28;20029;-59
2022/08/20 05:50:23;;;;;;;15.57;9.40;;;17.10;99.90;;;;;;5028454;28;20034;-59
2022/08/20 05:52:49;;;;;;;15.73;9.05;;;17.10;99.90;;;;;;5041066;28;20064;-59
2022/08/20 05:55:15;;;;;;;14.68;9.68;;;17.10;99.90;;;;;;5046136;28;20566;-59
2022/08/20 05:57:41;;;;;;;15.60;9.02;;;17.20;99.90;;;;;;5029886;28;20038;-59
2022/08/20 06:00:10;;;;;;;15.18;9.18;;;17.20;99.90;;;;;;5030830;28;20072;-59
2022/08/20 06:05:21;;;;;;;15.48;9.35;;;17.20;99.90;;;;;;5028821;28;20039;-59
2022/08/20 06:07:49;;;;;;;18.25;9.82;;;17.20;99.90;;;;;;5029051;28;20022;-59
2022/08/20 06:10:15;;;;;;;17.42;9.57;;;17.20;99.90;;;;;;5029718;28;20040;-59
2022/08/20 06:12:44;;;;;;;17.23;10.48;;;17.20;99.90;;;;;;5014378;28;20068;-59
2022/08/20 06:15:11;;;;;;;16.10;9.43;;;17.20;99.90;;;;;;5030851;28;20464;-59
2022/08/20 06:17:37;;;;;;;14.95;9.35;;;17.30;99.90;;;;;;5029087;28;20025;-60
2022/08/20 06:20:06;;;;;;;14.30;9.80;;;17.20;99.90;;;;;;5043391;28;20505;-59
2022/08/20 06:22:32;;;;;;;18.85;10.05;;;17.20;99.90;;;;;;5048939;28;20041;-60
2022/08/20 06:24:59;;;;;;;17.08;9.60;;;17.30;99.90;;;;;;5050685;28;20032;-59
2022/08/20 06:27:25;;;;;;;16.95;9.30;;;17.30;99.90;;;;;;5032546;28;20030;-59
2022/08/20 06:29:54;;;;;;;15.50;9.32;;;17.30;99.90;;;;;;5029100;28;20149;-60
2022/08/20 06:32:23;;;;;;;17.20;9.65;;;17.40;99.90;;;;;;5028111;28;20033;-59
2022/08/20 06:34:50;;;;;;;16.23;9.43;;;17.40;99.90;;;;;;5029296;28;20677;-59
2022/08/20 06:37:24;;;;;;;16.67;9.70;;;17.40;99.90;;;;;;5029661;28;20558;-59
2022/08/20 06:39:51;;;;;;;18.52;10.48;;;17.40;99.90;;;;;;5029662;28;20563;-59
2022/08/20 06:42:18;;;;;;;16.15;9.90;;;17.30;99.90;;;;;;5035309;28;20045;-59
2022/08/20 06:44:48;;;;;;;17.95;11.57;;;17.40;99.90;;;;;;5040789;28;20079;-59
2022/08/20 06:47:16;;;;;;;18.10;9.95;;;17.30;99.90;;;;;;5025677;28;20068;-60
2022/08/20 06:49:42;;;;;;;18.35;10.27;;;17.40;99.90;;;;;;5027037;28;20403;-59
2022/08/20 06:52:08;;;;;;;16.42;9.50;;;17.40;99.90;;;;;;5030474;28;20434;-59
2022/08/20 06:54:34;;;;;;;16.02;10.18;;;17.50;99.90;;;;;;5024073;28;20026;-59
2022/08/20 06:57:01;;;;;;;21.42;10.07;;;17.50;99.90;;;;;;5028403;28;20033;-59
2022/08/20 06:59:27;;;;;;;17.83;9.63;;;17.60;99.90;;;;;;5028535;28;20040;-59
2022/08/20 07:01:55;;;;;;;17.08;9.85;;;17.60;99.90;;;;;;5037149;28;20033;-59
2022/08/20 07:04:25;;;;;;;14.95;10.48;;;17.60;99.90;;;;;;5023483;28;20125;-60
2022/08/20 07:06:54;;;;;;;15.07;9.33;;;17.70;99.90;;;;;;5029297;28;20021;-60
2022/08/20 07:09:20;;;;;;;16.23;9.32;;;17.80;99.90;;;;;;5034593;28;20374;-59
2022/08/20 07:11:47;;;;;;;16.58;9.52;;;17.80;99.90;;;;;;5029394;28;20495;-59
2022/08/20 07:14:13;;;;;;;18.65;10.07;;;17.80;99.90;;;;;;5027752;28;20061;-60
2022/08/20 07:16:39;;;;;;;16.23;10.13;;;17.90;99.90;;;;;;5026167;28;20037;-59
2022/08/20 07:19:05;;;;;;;15.90;9.73;;;17.90;99.90;;;;;;5026295;28;20048;-61
2022/08/20 07:21:31;;;;;;;18.77;9.80;;;17.90;99.90;;;;;;5026255;28;20032;-61
2022/08/20 07:23:57;;;;;;;15.98;9.98;;;18.00;99.90;;;;;;5023071;28;20180;-59
2022/08/20 07:26:23;;;;;;;16.58;10.10;;;18.00;99.90;;;;;;5024582;28;20479;-59
2022/08/20 07:28:49;;;;;;;15.70;9.98;;;18.00;99.90;;;;;;5028432;28;20041;-60
2022/08/20 07:33:59;;;;;;;16.90;9.70;;;18.10;99.90;;;;;;5024697;28;20087;-60
2022/08/20 07:36:25;;;;;;;17.58;9.93;;;18.30;99.90;;;;;;5026426;28;20026;-60
2022/08/20 07:38:51;;;;;;;15.23;9.90;;;18.40;99.90;;;;;;5027731;28;20097;-60
2022/08/20 07:41:18;;;;;;;18.25;10.20;;;18.40;99.90;;;;;;5026762;28;20033;-60
2022/08/20 07:43:44;;;;;;;17.40;9.52;;;18.60;99.90;;;;;;5022430;28;20042;-59
2022/08/20 07:46:11;;;;;;;14.60;9.27;;;18.60;99.90;;;;;;5028259;28;20041;-59
2022/08/20 07:48:40;;;;;;;15.38;8.90;;;18.70;99.90;;;;;;5027813;28;20029;-60
2022/08/20 07:51:08;;;;;;;14.20;8.75;;;18.80;99.90;;;;;;5028470;28;20025;-60
2022/08/20 07:53:37;;;;;;;15.38;9.75;;;18.80;99.90;;;;;;5039998;28;20094;-61
2022/08/20 07:56:06;;;;;;;12.70;7.90;;;18.90;99.90;;;;;;5030506;28;20484;-60
2022/08/20 07:58:34;;;;;;;11.00;7.82;;;18.90;99.90;;;;;;5027107;28;20045;-61
2022/08/20 08:01:00;;;;;;;11.25;7.88;;;18.90;99.90;;;;;;5037622;28;20168;-59
2022/08/20 08:03:28;;;;;;;13.50;8.27;;;18.90;99.90;;;;;;5033036;28;20124;-60
2022/08/20 08:05:55;;;;;;;13.43;8.13;;;18.90;99.90;;;;;;5026777;28;20472;-59
2022/08/20 08:08:25;;;;;;;13.43;8.05;;;18.90;99.90;;;;;;5030122;28;20502;-59
2022/08/20 08:10:56;;;;;;;14.68;8.32;;;19.00;99.90;;;;;;5033181;28;20034;-59
2022/08/20 08:13:25;;;;;;;12.25;8.25;;;19.00;99.90;;;;;;5032585;28;20472;-60
2022/08/20 08:15:56;;;;;;;13.38;7.90;;;19.00;99.90;;;;;;5029579;28;20041;-60
2022/08/20 08:18:26;;;;;;;12.85;7.72;;;19.00;99.90;;;;;;5046756;28;20029;-60
2022/08/20 08:20:52;;;;;;;10.73;7.53;;;19.10;99.90;;;;;;5029178;28;20028;-60
2022/08/20 08:23:22;;;;;;;13.55;7.90;;;19.10;99.90;;;;;;5029856;28;20048;-60
2022/08/20 08:25:51;;;;;;;14.05;8.20;;;19.00;99.90;;;;;;5034445;28;20112;-59
2022/08/20 08:28:18;;;;;;;12.52;7.63;;;19.10;99.90;;;;;;5048210;28;20095;-60
2022/08/20 08:30:46;;;;;;;13.95;7.68;;;19.10;99.90;;;;;;5029147;28;20029;-60
2022/08/20 08:33:26;;;;;;;12.88;7.78;;;19.30;99.90;;;;;;5027678;28;20072;-61
2022/08/20 08:35:54;;;;;;;14.00;7.57;;;19.30;99.90;;;;;;5028225;28;20055;-60
2022/08/20 08:38:21;;;;;;;12.35;8.00;;;19.30;99.90;;;;;;5024422;28;20373;-60
2022/08/20 08:40:50;;;;;;;17.13;7.88;;;19.30;99.90;;;;;;5030383;28;20391;-59
2022/08/20 08:43:19;;;;;;;12.52;7.95;;;19.20;99.90;;;;;;5032740;28;20075;-59
2022/08/20 08:45:50;;;;;;;14.55;7.90;;;19.20;99.90;;;;;;5031432;28;20103;-59
2022/08/20 08:48:18;;;;;;;14.63;8.82;;;19.20;99.90;;;;;;5031081;28;20034;-60
2022/08/20 08:50:47;;;;;;;11.60;7.85;;;19.30;99.90;;;;;;5030292;28;20455;-59
2022/08/20 08:53:52;;;;;;;12.82;8.02;;;19.40;99.90;;;;;;5032246;28;20029;-59
2022/08/20 08:56:19;;;;;;;18.33;7.57;;;19.40;99.90;;;;;;5025587;28;20048;-59
2022/08/20 08:58:45;;;;;;;16.20;8.52;;;19.50;99.90;;;;;;5031964;28;20055;-60
2022/08/20 09:01:13;;;;;;;12.65;7.70;;;19.40;99.90;;;;;;5032361;28;20045;-59
2022/08/20 09:03:44;;;;;;;14.35;7.80;;;19.40;99.90;;;;;;5031783;28;20120;-61
2022/08/20 09:06:17;;;;;;;13.63;7.60;;;19.50;99.90;;;;;;5032367;28;20819;-59
2022/08/20 09:08:50;;;;;;;12.05;8.20;;;19.60;99.90;;;;;;5029338;28;20040;-60
2022/08/20 09:11:18;;;;;;;12.15;8.27;;;19.80;99.90;;;;;;5032550;28;20022;-59
2022/08/20 09:13:44;;;;;;;10.73;7.45;;;19.80;99.90;;;;;;5031376;28;20041;-60
2022/08/20 09:16:11;;;;;;;13.93;7.85;;;19.90;99.90;;;;;;5032033;28;20059;-59
2022/08/20 09:18:38;;;;;;;13.32;8.07;;;20.10;99.90;;;;;;5031900;28;20104;-61
2022/08/20 09:21:04;;;;;;;20.48;8.25;;;20.20;99.90;;;;;;5031629;28;20071;-59
2022/08/20 09:23:30;;;;;;;13.05;7.22;;;20.30;99.90;;;;;;5031030;28;20034;-60
2022/08/20 09:25:56;;;;;;;13.05;7.15;;;20.50;99.90;;;;;;5029743;28;20030;-59
2022/08/20 09:28:22;;;;;;;11.15;6.88;;;20.70;99.90;;;;;;5032205;28;20040;-60
2022/08/20 09:30:48;;;;;;;13.15;7.03;;;20.80;99.90;;;;;;5030940;28;20034;-59
2022/08/20 09:33:14;;;;;;;9.52;5.85;;;21.10;99.90;;;;;;5031655;28;20037;-60
2022/08/20 09:35:39;;;;;;;13.93;5.97;;;21.10;99.90;;;;;;5031632;28;20128;-61
2022/08/20 09:38:05;;;;;;;10.77;5.43;;;21.10;99.90;;;;;;5031130;28;20065;-59
2022/08/20 09:40:31;;;;;;;8.52;6.13;;;21.00;99.90;;;;;;5030871;28;20156;-59
2022/08/20 09:42:57;;;;;;;11.48;6.05;;;21.00;99.90;;;;;;5030777;28;20102;-59
2022/08/20 09:45:22;;;;;;;8.95;6.25;;;21.00;99.90;;;;;;5031104;28;20036;-59
2022/08/20 09:47:48;;;;;;;8.60;6.25;;;21.00;99.90;;;;;;5030840;28;20033;-59
2022/08/20 09:50:14;;;;;;;9.18;6.25;;;20.90;99.90;;;;;;5031614;28;20384;-59
2022/08/20 09:52:47;;;;;;;9.57;5.97;;;20.90;99.90;;;;;;5031075;28;20384;-61
2022/08/20 09:55:27;;;;;;;9.73;6.45;;;21.00;99.90;;;;;;5028995;28;20476;-59
2022/08/20 09:57:53;;;;;;;11.52;6.72;;;20.90;99.90;;;;;;5030799;28;20041;-58
2022/08/20 10:00:19;;;;;;;10.35;6.00;;;20.90;99.90;;;;;;5030169;28;20037;-59
2022/08/20 10:02:45;;;;;;;11.98;6.80;;;20.80;99.90;;;;;;5029103;28;20033;-60
2022/08/20 10:05:12;;;;;;;9.98;6.55;;;20.90;99.90;;;;;;5031375;28;20087;-59
2022/08/20 10:07:39;;;;;;;8.23;6.30;;;20.90;99.90;;;;;;5029446;28;20459;-60
2022/08/20 10:10:07;;;;;;;11.77;6.20;;;21.00;99.90;;;;;;5030444;28;20037;-59
2022/08/20 10:12:32;;;;;;;9.35;6.35;;;21.10;99.90;;;;;;5031071;28;20033;-59
2022/08/20 10:14:58;;;;;;;16.67;6.40;;;21.10;99.90;;;;;;5029432;28;20569;-59
2022/08/20 10:17:24;;;;;;;9.23;6.00;;;21.10;99.90;;;;;;5027980;28;20053;-59
2022/08/20 10:19:49;;;;;;;10.00;6.32;;;21.10;99.90;;;;;;5024334;28;20029;-59
2022/08/20 10:22:15;;;;;;;9.45;6.47;;;21.10;99.90;;;;;;5025601;28;20494;-59
2022/08/20 10:24:41;;;;;;;8.80;6.30;;;21.20;99.90;;;;;;5030641;28;20087;-61
2022/08/20 10:27:07;;;;;;;9.02;6.03;;;21.20;99.90;;;;;;5028372;28;20029;-59
2022/08/20 10:29:33;;;;;;;9.60;6.63;;;21.40;99.90;;;;;;5027098;28;20044;-59
2022/08/20 10:32:10;;;;;;;9.93;6.68;;;21.30;99.90;;;;;;5027814;28;20033;-59
2022/08/20 10:34:36;;;;;;;10.63;6.55;;;21.30;99.90;;;;;;5026058;28;20037;-59
2022/08/20 10:37:02;;;;;;;10.73;7.03;;;21.20;99.90;;;;;;5029328;28;20021;-60
2022/08/20 10:39:28;;;;;;;12.10;7.00;;;21.30;99.90;;;;;;5025424;28;20025;-59
2022/08/20 10:41:53;;;;;;;9.27;6.45;;;21.40;99.90;;;;;;5038912;28;20040;-60
2022/08/20 10:44:19;;;;;;;12.45;6.60;;;21.50;99.90;;;;;;5029361;28;20037;-59
2022/08/20 10:46:44;;;;;;;8.52;6.30;;;21.60;99.90;;;;;;5026255;28;20057;-61
2022/08/20 10:49:11;;;;;;;10.00;6.43;;;21.70;99.90;;;;;;5018550;28;20307;-60
2022/08/20 10:51:37;;;;;;;9.00;6.10;;;21.70;99.90;;;;;;5023271;28;20048;-60
2022/08/20 10:54:02;;;;;;;8.93;5.90;;;21.80;99.90;;;;;;5024103;28;20041;-60
2022/08/20 10:56:28;;;;;;;11.35;6.28;;;22.00;99.90;;;;;;5022606;28;20041;-61
2022/08/20 10:58:54;;;;;;;9.55;5.90;;;22.10;99.90;;;;;;5019702;28;20036;-60
2022/08/20 11:01:19;;;;;;;8.45;6.07;;;22.00;99.90;;;;;;5022405;28;20029;-59
2022/08/20 11:03:45;;;;;;;8.95;6.38;;;22.20;99.90;;;;;;5021942;28;20061;-62
2022/08/20 11:06:12;;;;;;;9.18;5.68;;;22.40;99.90;;;;;;5021136;28;20079;-60
2022/08/20 11:08:38;;;;;;;8.57;5.40;;;22.40;99.90;;;;;;5021111;28;20315;-60
2022/08/20 11:11:04;;;;;;;7.80;5.28;;;22.50;99.90;;;;;;5023372;28;20105;-60
2022/08/20 11:13:30;;;;;;;7.00;5.35;;;22.50;99.90;;;;;;5022783;28;20044;-60
2022/08/20 11:15:56;;;;;;;9.57;5.88;;;22.40;99.90;;;;;;5021874;28;20080;-60
2022/08/20 11:18:21;;;;;;;8.90;5.53;;;22.60;99.90;;;;;;5021109;28;20025;-60
2022/08/20 11:20:47;;;;;;;9.93;7.18;;;22.40;99.90;;;;;;5022891;28;20029;-61
2022/08/20 11:23:13;;;;;;;9.50;7.43;;;22.10;99.90;;;;;;5016523;28;20042;-60
2022/08/20 11:25:38;;;;;;;10.13;7.50;;;21.70;99.90;;;;;;5010381;28;20066;-60
2022/08/20 11:28:05;;;;;;;20.60;7.35;;;21.50;99.90;;;;;;5019727;28;20116;-60
2022/08/20 11:30:34;;;;;;;10.15;5.68;;;21.50;99.90;;;;;;5022433;28;20075;-60
2022/08/20 11:33:00;;;;;;;8.00;5.50;;;21.40;99.90;;;;;;5021575;28;20041;-60
2022/08/20 11:35:28;;;;;;;9.07;5.97;;;21.40;99.90;;;;;;5019825;28;20056;-59
2022/08/20 11:37:54;;;;;;;13.13;6.15;;;21.40;99.90;;;;;;5019030;28;20041;-60
2022/08/20 11:40:20;;;;;;;8.32;6.13;;;21.50;99.90;;;;;;5019888;28;20044;-60
2022/08/20 11:42:46;;;;;;;8.02;6.13;;;21.50;99.90;;;;;;5020860;28;20037;-61
2022/08/20 11:45:13;;;;;;;8.00;6.38;;;21.60;99.90;;;;;;5021231;28;20101;-60
2022/08/20 11:47:39;;;;;;;7.90;6.63;;;21.70;99.90;;;;;;5021276;28;20060;-59
2022/08/20 11:50:09;;;;;;;7.55;6.72;;;21.80;99.90;;;;;;5034390;28;20022;-60
2022/08/20 11:52:35;;;;;;;7.68;6.05;;;21.70;99.90;;;;;;5021675;28;20123;-61
2022/08/20 11:55:01;;;;;;;6.47;5.00;;;21.60;99.90;;;;;;5020298;28;20053;-59
2022/08/20 11:57:29;;;;;;;7.22;5.32;;;21.50;99.90;;;;;;5021662;28;20033;-60
2022/08/20 11:59:58;;;;;;;9.93;5.82;;;21.40;99.90;;;;;;5018444;28;20117;-57
2022/08/20 12:02:24;;;;;;;8.80;5.82;;;21.30;99.90;;;;;;5024555;28;20037;-58
2022/08/20 12:04:50;;;;;;;4.32;3.88;;;21.30;99.90;;;;;;5021563;28;20026;-58
2022/08/20 12:07:18;;;;;;;6.70;3.50;;;21.20;99.90;;;;;;5021278;28;20634;-61
2022/08/20 12:09:46;;;;;;;5.28;3.20;;;21.20;99.90;;;;;;5018887;28;20033;-61
2022/08/20 12:12:12;;;;;;;4.57;2.95;;;21.10;99.90;;;;;;5021317;28;20116;-60
2022/08/20 12:14:37;;;;;;;5.28;3.55;;;21.10;99.90;;;;;;5020198;28;20498;-59
2022/08/20 12:17:10;;;;;;;5.78;4.10;;;21.10;99.90;;;;;;5022463;28;20041;-59
2022/08/20 12:19:40;;;;;;;6.80;4.10;;;21.10;99.90;;;;;;5020717;28;20061;-60
2022/08/20 12:22:07;;;;;;;11.13;5.80;;;21.10;99.90;;;;;;5021099;28;20025;-60
2022/08/20 12:24:33;;;;;;;8.82;6.00;;;21.20;99.90;;;;;;5025628;28;20049;-60
2022/08/20 12:27:12;;;;;;;13.25;6.15;;;21.20;99.90;;;;;;5026550;28;20038;-57
2022/08/20 12:29:39;;;;;;;9.52;5.88;;;21.30;99.90;;;;;;5023320;28;20160;-61
2022/08/20 12:32:06;;;;;;;10.75;5.75;;;21.30;99.90;;;;;;5026013;28;20029;-57
2022/08/20 12:34:36;;;;;;;6.90;5.13;;;21.40;99.90;;;;;;5027896;28;20037;-58
2022/08/20 12:37:06;;;;;;;10.52;5.30;;;21.60;99.90;;;;;;5026841;28;20017;-57
2022/08/20 12:39:33;;;;;;;6.00;4.35;;;21.60;99.90;;;;;;5025475;28;20460;-57
2022/08/20 12:42:01;;;;;;;8.82;5.40;;;21.80;99.90;;;;;;5025057;28;20034;-57
2022/08/20 12:44:28;;;;;;;6.28;4.55;;;21.90;99.90;;;;;;5026981;28;20033;-58
2022/08/20 12:47:12;;;;;;;7.03;3.55;;;22.20;99.90;;;;;;5025348;28;20085;-58